createdAt,value
2018-09-03T00:01:25.247Z,16.20
2018-09-03T00:03:53.759Z,16.20
2018-09-03T00:06:22.238Z,16.20
2018-09-03T00:08:50.806Z,16.20
2018-09-03T00:11:19.298Z,16.10
2018-09-03T00:13:47.784Z,16.10
2018-09-03T00:16:17.113Z,16.10
2018-09-03T00:18:45.650Z,16.10
2018-09-03T00:21:14.486Z,16.10
2018-09-03T00:23:43.014Z,16.20
2018-09-03T00:26:11.555Z,16.20
2018-09-03T00:28:40.056Z,16.20
2018-09-03T00:31:13.691Z,16.20
2018-09-03T00:33:47.607Z,16.20
2018-09-03T00:36:21.790Z,16.20
2018-09-03T00:38:55.743Z,16.20
2018-09-03T00:41:29.636Z,16.20
2018-09-03T00:44:03.520Z,16.30
2018-09-03T00:46:37.302Z,16.20
2018-09-03T00:49:05.814Z,16.20
2018-09-03T00:51:34.350Z,16.20
2018-09-03T00:54:02.865Z,16.10
2018-09-03T00:56:31.408Z,16.10
2018-09-03T00:58:59.895Z,16.10
2018-09-03T01:01:28.920Z,16.10
2018-09-03T01:03:57.445Z,16.10
2018-09-03T01:06:26.187Z,16.10
2018-09-03T01:08:54.691Z,16.20
2018-09-03T01:11:25.390Z,16.20
2018-09-03T01:13:54.977Z,16.20
2018-09-03T01:16:23.669Z,16.20
2018-09-03T01:18:55.754Z,16.20
2018-09-03T01:21:25.234Z,16.20
2018-09-03T01:23:54.478Z,16.20
2018-09-03T01:26:23.030Z,16.10
2018-09-03T01:28:51.731Z,16.10
2018-09-03T01:31:21.625Z,16.10
2018-09-03T01:33:54.514Z,16.10
2018-09-03T01:36:23.036Z,16.10
2018-09-03T01:38:51.517Z,16.10
2018-09-03T01:41:20.606Z,16.10
2018-09-03T01:43:49.468Z,16.20
2018-09-03T01:46:18.009Z,16.20
2018-09-03T01:48:46.527Z,16.20
2018-09-03T01:51:15.055Z,16.20
2018-09-03T01:53:43.550Z,16.20
2018-09-03T01:56:12.048Z,16.30
2018-09-03T01:58:40.513Z,16.20
2018-09-03T02:01:09.149Z,16.20
2018-09-03T02:03:38.643Z,16.20
2018-09-03T02:06:07.446Z,16.10
2018-09-03T02:08:35.963Z,16.10
2018-09-03T02:11:04.513Z,16.10
2018-09-03T02:13:33.756Z,16.10
2018-09-03T02:16:02.730Z,16.10
2018-09-03T02:18:31.214Z,16.10
2018-09-03T02:20:59.797Z,16.20
2018-09-03T02:23:28.299Z,16.10
2018-09-03T02:25:56.851Z,16.10
2018-09-03T02:28:25.331Z,16.10
2018-09-03T02:30:53.870Z,16.10
2018-09-03T02:33:22.341Z,16.10
2018-09-03T02:35:50.979Z,16.10
2018-09-03T02:38:19.461Z,16.10
2018-09-03T02:40:48.002Z,16.10
2018-09-03T02:43:16.537Z,16.10
2018-09-03T02:45:45.086Z,16.10
2018-09-03T02:48:13.587Z,16.10
2018-09-03T02:50:42.099Z,16.10
2018-09-03T02:53:10.638Z,16.10
2018-09-03T02:55:39.246Z,16.20
2018-09-03T02:58:08.610Z,16.20
2018-09-03T03:00:37.118Z,16.20
2018-09-03T03:03:06.102Z,16.30
2018-09-03T03:05:34.686Z,16.30
2018-09-03T03:08:03.200Z,16.30
2018-09-03T03:10:31.658Z,16.30
2018-09-03T03:13:00.154Z,16.30
2018-09-03T03:15:28.671Z,16.40
2018-09-03T03:17:57.197Z,16.40
2018-09-03T03:20:25.694Z,16.40
2018-09-03T03:22:54.237Z,16.40
2018-09-03T03:25:22.807Z,16.40
2018-09-03T03:27:51.292Z,16.40
2018-09-03T03:30:19.811Z,16.40
2018-09-03T03:32:48.279Z,16.40
2018-09-03T03:35:16.863Z,16.40
2018-09-03T03:37:47.114Z,16.50
2018-09-03T03:40:16.292Z,16.50
2018-09-03T03:42:44.778Z,16.40
2018-09-03T03:45:13.318Z,16.50
2018-09-03T03:47:42.151Z,16.40
2018-09-03T03:50:12.952Z,16.40
2018-09-03T03:52:41.567Z,16.40
2018-09-03T03:55:10.196Z,16.50
2018-09-03T03:57:38.638Z,16.50
2018-09-03T04:00:07.438Z,16.50
2018-09-03T04:02:35.985Z,16.50
2018-09-03T04:05:04.487Z,16.50
2018-09-03T04:07:33.139Z,16.50
2018-09-03T04:10:01.846Z,16.50
2018-09-03T04:12:30.461Z,16.50
2018-09-03T04:14:58.943Z,16.50
2018-09-03T04:17:27.474Z,16.50
2018-09-03T04:20:03.463Z,16.50
2018-09-03T04:22:32.938Z,16.50
2018-09-03T04:25:02.030Z,16.50
2018-09-03T04:27:30.543Z,16.60
2018-09-03T04:29:59.715Z,16.50
2018-09-03T04:32:28.234Z,16.50
2018-09-03T04:34:56.707Z,16.50
2018-09-03T04:37:25.222Z,16.50
2018-09-03T04:39:53.706Z,16.60
2018-09-03T04:42:22.230Z,16.60
2018-09-03T04:44:51.017Z,16.60
2018-09-03T04:47:19.948Z,16.60
2018-09-03T04:49:48.438Z,16.60
2018-09-03T04:52:16.962Z,16.60
2018-09-03T04:54:45.728Z,16.60
2018-09-03T04:57:14.168Z,16.60
2018-09-03T04:59:43.342Z,16.60
2018-09-03T05:02:11.895Z,16.60
2018-09-03T05:04:40.374Z,16.60
2018-09-03T05:07:08.907Z,16.70
2018-09-03T05:09:37.385Z,16.60
2018-09-03T05:12:06.377Z,16.70
2018-09-03T05:14:34.934Z,16.60
2018-09-03T05:17:03.486Z,16.60
2018-09-03T05:19:31.963Z,16.70
2018-09-03T05:22:00.499Z,16.70
2018-09-03T05:24:28.963Z,16.70
2018-09-03T05:26:57.485Z,16.70
2018-09-03T05:29:26.078Z,16.70
2018-09-03T05:31:54.612Z,16.70
2018-09-03T05:34:25.442Z,16.70
2018-09-03T05:36:53.999Z,16.70
2018-09-03T05:39:23.210Z,16.80
2018-09-03T05:41:51.903Z,16.80
2018-09-03T05:44:20.382Z,16.70
2018-09-03T05:46:48.902Z,16.70
2018-09-03T05:49:17.378Z,16.80
2018-09-03T05:51:46.276Z,16.80
2018-09-03T05:54:14.769Z,16.80
2018-09-03T05:56:43.362Z,16.80
2018-09-03T05:59:11.911Z,16.80
2018-09-03T06:01:40.498Z,16.80
2018-09-03T06:04:09.022Z,16.90
2018-09-03T06:06:37.578Z,16.80
2018-09-03T06:09:08.468Z,16.80
2018-09-03T06:11:36.993Z,16.80
2018-09-03T06:14:05.774Z,16.80
2018-09-03T06:16:34.817Z,16.80
2018-09-03T06:19:03.318Z,16.90
2018-09-03T06:21:31.855Z,16.90
2018-09-03T06:24:00.376Z,16.90
2018-09-03T06:26:28.904Z,16.90
2018-09-03T06:28:58.012Z,16.90
2018-09-03T06:31:26.558Z,17.00
2018-09-03T06:33:55.018Z,17.00
2018-09-03T06:36:23.794Z,17.00
2018-09-03T06:38:52.898Z,17.10
2018-09-03T06:41:21.442Z,17.20
2018-09-03T06:43:49.933Z,17.30
2018-09-03T06:46:19.514Z,17.30
2018-09-03T06:48:48.510Z,17.30
2018-09-03T06:51:17.215Z,17.40
2018-09-03T06:53:45.998Z,17.40
2018-09-03T06:56:14.723Z,17.50
2018-09-03T06:58:43.226Z,17.50
2018-09-03T07:01:12.203Z,17.50
2018-09-03T07:03:40.722Z,17.50
2018-09-03T07:06:09.283Z,17.60
2018-09-03T07:08:38.870Z,17.60
2018-09-03T07:11:07.907Z,17.60
2018-09-03T07:13:36.481Z,17.70
2018-09-03T07:16:05.208Z,17.70
2018-09-03T07:18:33.699Z,17.80
2018-09-03T07:21:02.211Z,17.90
2018-09-03T07:23:30.711Z,18.00
2018-09-03T07:25:59.261Z,18.00
2018-09-03T07:28:27.783Z,18.00
2018-09-03T07:30:56.676Z,18.00
2018-09-03T07:33:25.235Z,17.90
2018-09-03T07:35:53.867Z,17.90
2018-09-03T07:38:22.442Z,18.00
2018-09-03T07:40:50.993Z,18.00
2018-09-03T07:43:20.508Z,18.00
2018-09-03T07:45:49.021Z,18.00
2018-09-03T07:48:17.538Z,18.10
2018-09-03T07:50:46.043Z,18.20
2018-09-03T07:53:14.522Z,18.30
2018-09-03T07:55:43.046Z,18.40
2018-09-03T07:58:11.541Z,18.50
2018-09-03T08:00:40.110Z,18.60
2018-09-03T08:03:08.622Z,18.60
2018-09-03T08:05:37.150Z,18.70
2018-09-03T08:08:06.277Z,18.70
2018-09-03T08:10:34.819Z,18.80
2018-09-03T08:13:03.344Z,18.90
2018-09-03T08:15:31.890Z,19.00
2018-09-03T08:18:00.402Z,19.00
2018-09-03T08:20:28.957Z,19.00
2018-09-03T08:22:58.154Z,19.10
2018-09-03T08:25:26.747Z,19.10
2018-09-03T08:27:55.266Z,19.10
2018-09-03T08:30:23.864Z,19.20
2018-09-03T08:32:52.384Z,19.20
2018-09-03T08:35:20.859Z,19.30
2018-09-03T08:37:49.388Z,19.40
2018-09-03T08:40:17.934Z,19.50
2018-09-03T08:42:46.462Z,19.60
2018-09-03T08:45:14.997Z,19.70
2018-09-03T08:47:43.519Z,19.80
2018-09-03T08:50:12.016Z,19.90
2018-09-03T08:52:40.728Z,20.10
2018-09-03T08:55:09.242Z,20.30
2018-09-03T08:57:37.828Z,20.40
2018-09-03T09:00:07.034Z,20.50
2018-09-03T09:02:35.795Z,20.60
2018-09-03T09:05:04.335Z,20.70
2018-09-03T09:07:32.920Z,20.70
2018-09-03T09:10:01.479Z,20.60
2018-09-03T09:12:30.014Z,20.60
2018-09-03T09:14:58.603Z,20.60
2018-09-03T09:17:27.104Z,20.60
2018-09-03T09:19:55.624Z,20.70
2018-09-03T09:22:24.138Z,20.90
2018-09-03T09:24:52.665Z,21.00
2018-09-03T09:27:21.227Z,21.00
2018-09-03T09:29:50.806Z,21.30
2018-09-03T09:32:19.561Z,21.50
2018-09-03T09:34:48.386Z,21.70
2018-09-03T09:37:16.916Z,21.90
2018-09-03T09:39:45.975Z,22.10
2018-09-03T09:42:14.563Z,22.30
2018-09-03T09:44:43.222Z,22.30
2018-09-03T09:47:12.127Z,22.40
2018-09-03T09:49:40.642Z,22.50
2018-09-03T09:52:09.146Z,22.60
2018-09-03T09:54:37.979Z,22.60
2018-09-03T09:57:06.516Z,22.60
2018-09-03T09:59:34.999Z,22.50
2018-09-03T10:02:03.531Z,22.40
2018-09-03T10:04:32.226Z,22.30
2018-09-03T10:07:00.780Z,22.40
2018-09-03T10:09:29.254Z,22.40
2018-09-03T10:11:57.783Z,22.50
2018-09-03T10:14:26.363Z,22.40
2018-09-03T10:16:55.491Z,22.30
2018-09-03T10:19:23.997Z,22.20
2018-09-03T10:21:52.737Z,22.20
2018-09-03T10:24:21.222Z,22.30
2018-09-03T10:26:49.707Z,22.40
2018-09-03T10:29:18.296Z,22.40
2018-09-03T10:31:46.822Z,22.60
2018-09-03T10:34:15.342Z,22.80
2018-09-03T10:36:44.019Z,23.00
2018-09-03T10:39:12.578Z,23.00
2018-09-03T10:41:41.083Z,23.00
2018-09-03T10:44:09.631Z,23.00
2018-09-03T10:46:38.146Z,23.00
2018-09-03T10:49:06.686Z,23.00
2018-09-03T10:51:35.235Z,23.20
2018-09-03T10:54:03.777Z,23.20
2018-09-03T10:56:32.278Z,23.20
2018-09-03T10:59:00.837Z,23.30
2018-09-03T11:01:34.488Z,23.30
2018-09-03T11:04:03.469Z,23.20
2018-09-03T11:06:32.027Z,23.20
2018-09-03T11:09:00.550Z,23.10
2018-09-03T11:11:29.228Z,23.20
2018-09-03T11:14:02.678Z,23.20
2018-09-03T11:16:31.284Z,23.10
2018-09-03T11:18:59.804Z,23.10
2018-09-03T11:21:28.496Z,23.10
2018-09-03T11:23:56.885Z,23.10
2018-09-03T11:26:25.430Z,23.20
2018-09-03T11:28:53.970Z,23.20
2018-09-03T11:31:22.479Z,23.20
2018-09-03T11:33:51.169Z,23.20
2018-09-03T11:36:19.933Z,23.20
2018-09-03T11:38:48.579Z,23.20
2018-09-03T11:41:17.166Z,23.10
2018-09-03T11:43:45.791Z,23.20
2018-09-03T11:46:14.419Z,23.30
2018-09-03T11:48:43.595Z,23.50
2018-09-03T11:51:12.863Z,23.60
2018-09-03T11:53:41.486Z,23.60
2018-09-03T11:56:10.070Z,23.60
2018-09-03T11:58:38.663Z,23.60
2018-09-03T12:01:07.201Z,23.60
2018-09-03T12:03:35.749Z,23.50
2018-09-03T12:06:04.291Z,23.40
2018-09-03T12:08:32.787Z,23.40
2018-09-03T12:11:01.776Z,23.40
2018-09-03T12:13:30.384Z,23.50
2018-09-03T12:16:06.293Z,23.50
2018-09-03T12:18:35.705Z,23.50
2018-09-03T12:21:04.568Z,23.50
2018-09-03T12:23:33.243Z,23.50
2018-09-03T12:26:02.332Z,23.40
2018-09-03T12:28:31.195Z,23.30
2018-09-03T12:31:00.065Z,23.10
2018-09-03T12:33:29.170Z,23.00
2018-09-03T12:35:57.688Z,22.90
2018-09-03T12:38:26.183Z,22.80
2018-09-03T12:40:54.753Z,22.70
2018-09-03T12:43:23.248Z,22.60
2018-09-03T12:45:57.173Z,22.60
2018-09-03T12:48:26.191Z,22.50
2018-09-03T12:50:54.873Z,22.40
2018-09-03T12:53:23.490Z,22.30
2018-09-03T12:55:52.054Z,22.30
2018-09-03T12:58:20.545Z,22.20
2018-09-03T13:00:49.141Z,22.10
2018-09-03T13:03:17.764Z,22.10
2018-09-03T13:05:46.346Z,22.00
2018-09-03T13:08:15.260Z,22.00
2018-09-03T13:10:44.196Z,21.90
2018-09-03T13:13:12.778Z,21.90
2018-09-03T13:15:41.389Z,21.80
2018-09-03T13:18:09.904Z,21.70
2018-09-03T13:20:38.553Z,21.70
2018-09-03T13:23:10.827Z,21.70
2018-09-03T13:25:39.425Z,21.70
2018-09-03T13:28:07.995Z,21.60
2018-09-03T13:30:36.581Z,21.70
2018-09-03T13:33:05.111Z,21.70
2018-09-03T13:35:33.786Z,21.90
2018-09-03T13:38:02.339Z,22.00
2018-09-03T13:40:30.897Z,22.20
2018-09-03T13:42:59.407Z,22.40
2018-09-03T13:45:27.951Z,22.60
2018-09-03T13:47:56.810Z,22.80
2018-09-03T13:50:25.369Z,22.90
2018-09-03T13:52:54.072Z,23.10
2018-09-03T13:55:22.618Z,23.30
2018-09-03T13:57:51.129Z,23.60
2018-09-03T14:00:19.679Z,24.00
2018-09-03T14:02:48.172Z,24.40
2018-09-03T14:05:17.086Z,25.00
2018-09-03T14:07:45.754Z,26.00
2018-09-03T14:10:14.714Z,26.30
2018-09-03T14:12:43.446Z,26.70
2018-09-03T14:15:12.238Z,26.60
2018-09-03T14:17:40.894Z,26.60
2018-09-03T14:20:09.501Z,26.60
2018-09-03T14:22:38.311Z,26.50
2018-09-03T14:25:06.971Z,26.20
2018-09-03T14:27:35.671Z,26.00
2018-09-03T14:30:04.266Z,25.80
2018-09-03T14:32:32.800Z,25.60
2018-09-03T14:35:01.600Z,25.40
2018-09-03T14:37:30.427Z,25.30
2018-09-03T14:39:59.102Z,25.30
2018-09-03T14:42:27.610Z,25.30
2018-09-03T14:44:56.519Z,25.20
2018-09-03T14:47:25.155Z,25.10
2018-09-03T14:49:53.739Z,25.10
2018-09-03T14:52:22.309Z,25.00
2018-09-03T14:54:50.876Z,24.80
2018-09-03T14:57:19.398Z,24.60
2018-09-03T14:59:48.034Z,24.40
2018-09-03T15:02:16.548Z,24.20
2018-09-03T15:04:45.149Z,24.10
2018-09-03T15:07:13.836Z,23.90
2018-09-03T15:09:42.408Z,23.80
2018-09-03T15:12:10.930Z,23.70
2018-09-03T15:14:39.549Z,23.50
2018-09-03T15:17:08.065Z,23.50
2018-09-03T15:19:36.845Z,23.30
2018-09-03T15:22:05.763Z,23.20
2018-09-03T15:24:35.230Z,23.10
2018-09-03T15:27:03.955Z,23.10
2018-09-03T15:29:32.628Z,23.10
2018-09-03T15:32:01.272Z,23.00
2018-09-03T15:34:29.880Z,23.00
2018-09-03T15:36:58.743Z,23.00
2018-09-03T15:39:27.405Z,23.00
2018-09-03T15:41:57.113Z,23.00
2018-09-03T15:44:25.767Z,23.10
2018-09-03T15:46:55.077Z,23.00
2018-09-03T15:49:23.973Z,23.00
2018-09-03T15:51:53.826Z,23.00
2018-09-03T15:54:22.874Z,23.00
2018-09-03T15:56:51.651Z,23.10
2018-09-03T15:59:20.737Z,23.00
2018-09-03T16:01:49.390Z,23.10
2018-09-03T16:04:18.184Z,23.00
2018-09-03T16:06:48.437Z,23.10
2018-09-03T16:09:17.198Z,23.00
2018-09-03T16:11:46.290Z,23.00
2018-09-03T16:14:14.971Z,23.00
2018-09-03T16:16:43.553Z,23.00
2018-09-03T16:19:12.098Z,23.00
2018-09-03T16:21:40.728Z,23.00
2018-09-03T16:24:10.242Z,22.90
2018-09-03T16:26:39.041Z,22.90
2018-09-03T16:29:07.838Z,22.80
2018-09-03T16:31:36.431Z,22.80
2018-09-03T16:34:05.379Z,22.80
2018-09-03T16:36:33.953Z,22.70
2018-09-03T16:39:04.012Z,22.70
2018-09-03T16:41:32.515Z,22.60
2018-09-03T16:44:01.178Z,22.60
2018-09-03T16:46:30.344Z,22.60
2018-09-03T16:48:58.948Z,22.50
2018-09-03T16:51:27.605Z,22.50
2018-09-03T16:53:56.351Z,22.40
2018-09-03T16:56:25.679Z,22.40
2018-09-03T16:58:54.508Z,22.30
2018-09-03T17:01:23.198Z,22.30
2018-09-03T17:03:51.824Z,22.30
2018-09-03T17:06:20.634Z,22.20
2018-09-03T17:08:49.201Z,22.20
2018-09-03T17:11:17.846Z,22.20
2018-09-03T17:13:46.413Z,22.10
2018-09-03T17:16:15.118Z,22.10
2018-09-03T17:18:43.691Z,22.00
2018-09-03T17:21:12.297Z,22.00
2018-09-03T17:23:40.853Z,21.90
2018-09-03T17:26:09.343Z,21.80
2018-09-03T17:28:38.231Z,21.80
2018-09-03T17:31:06.902Z,21.70
2018-09-03T17:33:35.705Z,21.70
2018-09-03T17:36:04.287Z,21.60
2018-09-03T17:38:33.171Z,21.50
2018-09-03T17:41:01.719Z,21.50
2018-09-03T17:43:30.478Z,21.40
2018-09-03T17:45:59.492Z,21.40
2018-09-03T17:48:28.088Z,21.40
2018-09-03T17:50:56.643Z,21.30
2018-09-03T17:53:25.223Z,21.30
2018-09-03T17:55:54.299Z,21.30
2018-09-03T17:58:22.988Z,21.20
2018-09-03T18:00:51.604Z,21.20
2018-09-03T18:03:20.338Z,21.20
2018-09-03T18:05:48.967Z,21.20
2018-09-03T18:08:18.815Z,21.20
2018-09-03T18:10:47.577Z,21.10
2018-09-03T18:13:16.603Z,21.10
2018-09-03T18:15:45.325Z,21.10
2018-09-03T18:18:14.266Z,21.10
2018-09-03T18:20:43.296Z,21.00
2018-09-03T18:23:11.884Z,21.00
2018-09-03T18:25:40.684Z,21.00
2018-09-03T18:28:09.304Z,21.00
2018-09-03T18:30:37.834Z,20.90
2018-09-03T18:33:06.449Z,20.90
2018-09-03T18:35:35.026Z,20.90
2018-09-03T18:38:03.627Z,20.90
2018-09-03T18:40:32.918Z,20.90
2018-09-03T18:43:01.742Z,20.90
2018-09-03T18:45:30.515Z,20.80
2018-09-03T18:47:59.116Z,20.90
2018-09-03T18:50:27.664Z,20.80
2018-09-03T18:52:56.253Z,20.80
2018-09-03T18:55:24.795Z,20.80
2018-09-03T18:57:53.498Z,20.80
2018-09-03T19:00:22.117Z,20.80
2018-09-03T19:02:50.783Z,20.80
2018-09-03T19:05:19.348Z,20.80
2018-09-03T19:07:47.913Z,20.80
2018-09-03T19:10:16.606Z,20.80
2018-09-03T19:12:45.217Z,20.70
2018-09-03T19:15:13.803Z,20.70
2018-09-03T19:17:42.423Z,20.70
2018-09-03T19:20:11.509Z,20.70
2018-09-03T19:22:40.361Z,20.60
2018-09-03T19:25:09.045Z,20.60
2018-09-03T19:27:37.602Z,20.60
2018-09-03T19:30:06.199Z,20.60
2018-09-03T19:32:34.713Z,20.60
2018-09-03T19:35:03.435Z,20.60
2018-09-03T19:37:32.149Z,20.60
2018-09-03T19:40:00.726Z,20.60
2018-09-03T19:42:29.443Z,20.60
2018-09-03T19:44:58.013Z,20.60
2018-09-03T19:47:26.660Z,20.50
2018-09-03T19:49:55.287Z,20.50
2018-09-03T19:52:23.845Z,20.50
2018-09-03T19:54:52.447Z,20.50
2018-09-03T19:57:20.970Z,20.50
2018-09-03T19:59:49.621Z,20.50
2018-09-03T20:02:18.203Z,20.50
2018-09-03T20:04:47.629Z,20.50
2018-09-03T20:07:16.124Z,20.50
2018-09-03T20:09:44.862Z,20.50
2018-09-03T20:12:13.462Z,20.50
2018-09-03T20:14:42.073Z,20.50
2018-09-03T20:17:10.628Z,20.40
2018-09-03T20:19:39.404Z,20.40
2018-09-03T20:22:13.599Z,20.40
2018-09-03T20:24:42.273Z,20.40
2018-09-03T20:27:10.808Z,20.40
2018-09-03T20:29:40.010Z,20.30
2018-09-03T20:32:08.683Z,20.30
2018-09-03T20:34:37.389Z,20.30
2018-09-03T20:37:08.326Z,20.30
2018-09-03T20:39:37.097Z,20.30
2018-09-03T20:42:06.143Z,20.30
2018-09-03T20:44:34.856Z,20.30
2018-09-03T20:47:03.722Z,20.20
2018-09-03T20:49:32.255Z,20.20
2018-09-03T20:52:00.836Z,20.20
2018-09-03T20:54:29.457Z,20.10
2018-09-03T20:56:58.719Z,20.10
2018-09-03T20:59:27.373Z,20.10
2018-09-03T21:01:55.959Z,20.10
2018-09-03T21:04:24.725Z,20.10
2018-09-03T21:06:53.293Z,20.10
2018-09-03T21:09:21.873Z,20.10
2018-09-03T21:11:51.606Z,20.00
2018-09-03T21:14:20.235Z,20.10
2018-09-03T21:16:48.996Z,20.00
2018-09-03T21:19:18.915Z,20.00
2018-09-03T21:21:47.543Z,20.00
2018-09-03T21:24:16.237Z,20.00
2018-09-03T21:26:44.852Z,19.90
2018-09-03T21:29:13.421Z,19.90
2018-09-03T21:31:41.932Z,19.90
2018-09-03T21:34:10.551Z,19.90
2018-09-03T21:36:39.433Z,19.90
2018-09-03T21:39:08.302Z,19.90
2018-09-03T21:41:36.989Z,19.90
2018-09-03T21:44:05.863Z,19.80
2018-09-03T21:46:34.599Z,19.80
2018-09-03T21:49:03.119Z,19.70
2018-09-03T21:51:31.648Z,19.70
2018-09-03T21:54:00.347Z,19.70
2018-09-03T21:56:28.989Z,19.60
2018-09-03T21:58:57.711Z,19.60
2018-09-03T22:01:26.242Z,19.60
2018-09-03T22:03:54.750Z,19.60
2018-09-03T22:06:23.304Z,19.60
2018-09-03T22:08:51.847Z,19.60
2018-09-03T22:11:20.503Z,19.50
2018-09-03T22:13:49.030Z,19.50
2018-09-03T22:16:17.575Z,19.50
2018-09-03T22:18:46.251Z,19.40
2018-09-03T22:21:14.786Z,19.40
2018-09-03T22:23:43.370Z,19.40
2018-09-03T22:26:12.027Z,19.40
2018-09-03T22:28:40.547Z,19.40
2018-09-03T22:31:09.101Z,19.40
2018-09-03T22:33:37.623Z,19.50
2018-09-03T22:36:06.785Z,19.40
2018-09-03T22:38:36.734Z,19.40
2018-09-03T22:41:05.636Z,19.40
2018-09-03T22:43:36.619Z,19.40
2018-09-03T22:46:05.930Z,19.40
2018-09-03T22:48:34.482Z,19.30
2018-09-03T22:51:03.678Z,19.30
2018-09-03T22:53:33.104Z,19.20
2018-09-03T22:56:02.678Z,19.20
2018-09-03T22:58:31.214Z,19.20
2018-09-03T23:00:59.690Z,19.10
2018-09-03T23:03:28.754Z,19.10
2018-09-03T23:05:57.357Z,19.00
2018-09-03T23:08:26.037Z,19.00
2018-09-03T23:10:54.549Z,19.00
2018-09-03T23:13:23.077Z,18.90
2018-09-03T23:15:52.612Z,18.90
2018-09-03T23:18:22.985Z,18.90
2018-09-03T23:20:51.471Z,18.80
2018-09-03T23:23:20.035Z,18.80
2018-09-03T23:25:48.667Z,18.80
2018-09-03T23:28:17.291Z,18.80
2018-09-03T23:30:46.052Z,18.70
2018-09-03T23:33:14.611Z,18.70
2018-09-03T23:35:43.840Z,18.70
2018-09-03T23:38:14.196Z,18.70
2018-09-03T23:40:42.743Z,18.60
2018-09-03T23:43:11.261Z,18.60
2018-09-03T23:45:39.975Z,18.60
2018-09-03T23:48:09.307Z,18.60
2018-09-03T23:50:37.946Z,18.60
2018-09-03T23:53:07.155Z,18.50
2018-09-03T23:55:35.779Z,18.50
2018-09-03T23:58:04.313Z,18.50
